Ryeland, Pennsylvania
Current Conditions -  °F | °C
As of 5:54 AM on Thursday 18 Dec 2014 (Local Time) from KRDG Reporting Station
Broken Clouds Broken Clouds  
Wind Chill: -3°   Ceiling: 4000
Heat Index:   Visibility: 10mi
Dew Point: -7°   Wind: 13mph
Humidity: 54%   Direction: 300°WNW
Pressure: 30.03"   Gusts: NA
Location:  40.3905°N, 76.2083°W
Report Text: KRDG 181054Z 30011KT 10SM BKN040 02/M07 A3003 RMK AO2 SLP175 T00171067
Loading
Personal Weather Stations






























Interactive Weather Map New forecast layout! Learn more

10-Day Weather Forecast

Advertisements
Track Severe Weather on mobile